createdAt,value
2022-07-27T00:00:57.092Z,24.30
2022-07-27T00:03:24.113Z,24.42
2022-07-27T00:05:50.862Z,24.40
2022-07-27T00:08:20.627Z,24.39
2022-07-27T00:10:48.063Z,24.47
2022-07-27T00:13:14.877Z,24.57
2022-07-27T00:15:44.570Z,24.46
2022-07-27T00:18:11.679Z,24.23
2022-07-27T00:20:40.058Z,24.37
2022-07-27T00:23:07.101Z,24.27
2022-07-27T00:25:35.267Z,24.24
2022-07-27T00:28:02.156Z,24.20
2022-07-27T00:30:29.383Z,24.12
2022-07-27T00:32:57.099Z,24.24
2022-07-27T00:35:23.827Z,24.10
2022-07-27T00:37:50.675Z,24.01
2022-07-27T00:40:17.725Z,24.10
2022-07-27T00:42:45.032Z,23.77
2022-07-27T00:45:11.875Z,23.97
2022-07-27T00:47:38.956Z,23.98
2022-07-27T00:50:05.993Z,23.83
2022-07-27T00:52:33.333Z,23.80
2022-07-27T00:55:00.479Z,23.97
2022-07-27T00:57:27.786Z,23.97
2022-07-27T00:59:54.757Z,23.84
2022-07-27T01:02:22.859Z,24.08
2022-07-27T01:04:53.807Z,24.09
2022-07-27T01:07:24.726Z,23.86
2022-07-27T01:09:57.751Z,24.10
2022-07-27T01:12:29.552Z,24.12
2022-07-27T01:14:57.941Z,24.07
2022-07-27T01:17:25.617Z,23.81
2022-07-27T01:19:52.378Z,23.96
2022-07-27T01:22:19.305Z,24.07
2022-07-27T01:24:46.489Z,24.03
2022-07-27T01:27:13.221Z,24.00
2022-07-27T01:29:40.715Z,24.05
2022-07-27T01:32:08.022Z,24.13
2022-07-27T01:34:35.222Z,24.14
2022-07-27T01:37:02.302Z,24.04
2022-07-27T01:39:29.495Z,24.05
2022-07-27T01:41:56.313Z,24.03
2022-07-27T01:44:23.582Z,23.86
2022-07-27T01:46:50.892Z,23.87
2022-07-27T01:49:17.826Z,23.73
2022-07-27T01:51:44.885Z,23.69
2022-07-27T01:54:12.141Z,23.76
2022-07-27T01:56:39.032Z,23.57
2022-07-27T01:59:06.120Z,23.71
2022-07-27T02:01:33.221Z,23.74
2022-07-27T02:04:00.311Z,23.48
2022-07-27T02:06:27.388Z,23.64
2022-07-27T02:08:54.240Z,23.54
2022-07-27T02:11:39.873Z,23.70
2022-07-27T02:14:06.648Z,23.47
2022-07-27T02:16:33.877Z,23.57
2022-07-27T02:19:00.766Z,23.43
2022-07-27T02:21:32.714Z,23.55
2022-07-27T02:23:59.782Z,23.46
2022-07-27T02:26:27.747Z,23.38
2022-07-27T02:28:54.562Z,23.50
2022-07-27T02:31:21.628Z,23.31
2022-07-27T02:33:48.403Z,23.53
2022-07-27T02:36:15.169Z,23.43
2022-07-27T02:38:42.205Z,23.39
2022-07-27T02:41:09.249Z,23.46
2022-07-27T02:43:35.970Z,23.49
2022-07-27T02:46:03.063Z,23.38
2022-07-27T02:48:30.163Z,23.30
2022-07-27T02:50:59.869Z,23.33
2022-07-27T02:53:26.863Z,23.10
2022-07-27T02:55:53.640Z,23.13
2022-07-27T02:58:21.229Z,23.17
2022-07-27T03:00:48.506Z,23.06
2022-07-27T03:03:15.311Z,23.25
2022-07-27T03:05:42.202Z,23.10
2022-07-27T03:08:09.689Z,23.11
2022-07-27T03:10:36.779Z,23.02
2022-07-27T03:13:03.757Z,23.08
2022-07-27T03:15:32.296Z,23.11
2022-07-27T03:17:59.328Z,22.73
2022-07-27T03:20:26.187Z,23.05
2022-07-27T03:22:54.262Z,23.00
2022-07-27T03:25:21.005Z,23.03
2022-07-27T03:27:47.710Z,23.17
2022-07-27T03:30:14.820Z,22.97
2022-07-27T03:32:42.038Z,23.07
2022-07-27T03:35:09.072Z,22.97
2022-07-27T03:37:36.048Z,22.89
2022-07-27T03:40:02.979Z,23.05
2022-07-27T03:42:29.962Z,22.86
2022-07-27T03:44:57.464Z,23.02
2022-07-27T03:47:25.067Z,23.02
2022-07-27T03:49:52.873Z,22.82
2022-07-27T03:52:20.183Z,23.12
2022-07-27T03:54:48.647Z,22.91
2022-07-27T03:57:15.516Z,22.91
2022-07-27T03:59:42.484Z,23.01
2022-07-27T04:02:09.312Z,23.11
2022-07-27T04:04:36.483Z,23.01
2022-07-27T04:07:03.305Z,22.88
2022-07-27T04:09:30.040Z,22.89
2022-07-27T04:11:58.435Z,22.86
2022-07-27T04:14:26.406Z,22.90
2022-07-27T04:16:53.273Z,22.78
2022-07-27T04:19:20.395Z,22.81
2022-07-27T04:21:47.169Z,22.88
2022-07-27T04:24:14.102Z,22.94
2022-07-27T04:26:56.099Z,23.02
2022-07-27T04:29:32.423Z,23.09
2022-07-27T04:32:01.276Z,23.03
2022-07-27T04:34:28.107Z,22.98
2022-07-27T04:36:54.866Z,23.02
2022-07-27T04:39:21.953Z,23.20
2022-07-27T04:41:48.681Z,23.41
2022-07-27T04:44:15.440Z,23.35
2022-07-27T04:46:42.718Z,23.37
2022-07-27T04:49:09.810Z,23.40
2022-07-27T04:51:36.775Z,23.49
2022-07-27T05:21:30.283Z,23.87
2022-07-27T05:23:57.380Z,23.93
2022-07-27T05:26:24.153Z,24.10
2022-07-27T05:28:51.070Z,24.06
2022-07-27T05:31:18.763Z,24.20
2022-07-27T05:33:49.144Z,24.21
2022-07-27T05:36:17.322Z,24.13
2022-07-27T05:38:44.300Z,24.14
2022-07-27T05:41:11.067Z,24.24
2022-07-27T05:43:37.780Z,24.35
2022-07-27T05:46:04.801Z,24.29
2022-07-27T05:48:31.663Z,24.37
2022-07-27T05:50:58.459Z,24.61
2022-07-27T05:53:25.617Z,24.70
2022-07-27T05:55:58.658Z,24.74
2022-07-27T05:58:29.667Z,24.83
2022-07-27T06:00:56.795Z,24.79
2022-07-27T06:03:24.008Z,24.71
2022-07-27T06:05:50.837Z,24.84
2022-07-27T06:08:17.563Z,24.80
2022-07-27T06:10:44.587Z,24.87
2022-07-27T06:13:14.310Z,25.06
2022-07-27T06:15:41.108Z,25.16
2022-07-27T06:18:14.991Z,25.22
2022-07-27T06:20:43.193Z,25.20
2022-07-27T06:23:11.057Z,25.35
2022-07-27T06:25:37.855Z,25.63
2022-07-27T06:28:05.134Z,25.65
2022-07-27T06:30:32.362Z,25.77
2022-07-27T06:32:59.677Z,25.99
2022-07-27T06:35:26.587Z,26.25
2022-07-27T06:37:54.136Z,26.44
2022-07-27T06:40:20.918Z,26.98
2022-07-27T06:42:47.687Z,27.29
2022-07-27T06:45:14.887Z,27.65
2022-07-27T06:47:48.799Z,28.06
2022-07-27T06:50:17.751Z,28.31
2022-07-27T06:52:44.602Z,28.58
2022-07-27T06:55:11.371Z,28.97
2022-07-27T06:57:38.405Z,29.19
2022-07-27T07:00:05.756Z,29.34
2022-07-27T07:02:32.653Z,29.67
2022-07-27T07:04:59.667Z,29.86
2022-07-27T07:07:26.418Z,30.07
2022-07-27T07:09:53.180Z,29.88
2022-07-27T07:12:20.291Z,30.11
2022-07-27T07:14:47.020Z,29.87
2022-07-27T07:17:13.992Z,30.48
2022-07-27T07:19:41.522Z,30.66
2022-07-27T07:22:08.539Z,30.62
2022-07-27T07:24:35.483Z,30.82
2022-07-27T07:27:02.454Z,31.01
2022-07-27T07:29:29.217Z,31.08
2022-07-27T07:31:56.065Z,31.22
2022-07-27T07:34:23.185Z,31.53
2022-07-27T07:36:49.945Z,31.84
2022-07-27T07:39:17.349Z,31.91
2022-07-27T07:41:44.425Z,31.59
2022-07-27T07:44:11.218Z,31.99
2022-07-27T07:46:38.198Z,32.29
2022-07-27T07:49:05.526Z,32.22
2022-07-27T07:51:32.379Z,32.17
2022-07-27T07:53:59.390Z,32.54
2022-07-27T07:56:26.396Z,32.79
2022-07-27T07:58:53.391Z,32.92
2022-07-27T08:01:20.202Z,32.98
2022-07-27T08:03:53.551Z,32.97
2022-07-27T08:06:20.355Z,33.12
2022-07-27T08:08:47.149Z,33.21
2022-07-27T08:11:14.136Z,33.16
2022-07-27T08:13:40.873Z,33.48
2022-07-27T08:16:07.664Z,33.70
2022-07-27T08:18:34.789Z,33.37
2022-07-27T08:21:01.518Z,33.26
2022-07-27T08:23:28.368Z,33.70
2022-07-27T08:25:55.607Z,33.30
2022-07-27T08:28:22.711Z,33.39
2022-07-27T08:30:49.649Z,33.48
2022-07-27T08:33:17.071Z,33.58
2022-07-27T08:35:44.362Z,33.85
2022-07-27T08:38:11.310Z,34.22
2022-07-27T08:40:44.055Z,33.67
2022-07-27T08:43:12.106Z,33.69
2022-07-27T08:45:41.695Z,33.82
2022-07-27T08:48:12.124Z,34.39
2022-07-27T08:50:38.978Z,34.06
2022-07-27T08:53:07.072Z,34.16
2022-07-27T08:55:41.051Z,34.28
2022-07-27T08:58:08.736Z,34.36
2022-07-27T09:00:36.039Z,34.28
2022-07-27T09:03:03.399Z,34.46
2022-07-27T09:05:37.548Z,34.84
2022-07-27T09:08:15.009Z,34.41
2022-07-27T09:10:42.147Z,34.46
2022-07-27T09:13:18.179Z,34.85
2022-07-27T09:16:15.796Z,34.72
2022-07-27T09:18:37.638Z,34.81
2022-07-27T09:21:07.567Z,34.38
2022-07-27T09:23:34.406Z,34.46
2022-07-27T09:26:31.276Z,33.95
2022-07-27T09:29:00.609Z,34.32
2022-07-27T09:31:27.419Z,34.66
2022-07-27T09:33:55.063Z,34.86
2022-07-27T09:36:22.886Z,34.69
2022-07-27T09:39:02.103Z,35.09
2022-07-27T09:41:46.294Z,35.26
2022-07-27T09:44:32.167Z,35.21
2022-07-27T09:47:00.098Z,34.90
2022-07-27T09:49:27.702Z,35.50
2022-07-27T09:52:00.637Z,35.29
2022-07-27T09:54:41.554Z,35.33
2022-07-27T09:57:09.192Z,35.81
2022-07-27T09:59:36.202Z,35.52
2022-07-27T10:02:03.137Z,35.54
2022-07-27T10:04:30.202Z,35.82
2022-07-27T10:07:07.265Z,35.94
2022-07-27T10:09:37.920Z,35.39
2022-07-27T10:12:04.961Z,35.21
2022-07-27T10:14:32.275Z,35.35
2022-07-27T10:16:59.346Z,35.55
2022-07-27T10:19:28.416Z,35.88
2022-07-27T10:21:56.114Z,35.86
2022-07-27T10:24:26.999Z,36.06
2022-07-27T10:26:53.964Z,35.73
2022-07-27T10:29:21.095Z,35.54
2022-07-27T10:31:54.009Z,35.55
2022-07-27T10:34:39.780Z,35.36
2022-07-27T10:37:11.006Z,35.75
2022-07-27T10:39:43.158Z,35.99
2022-07-27T10:42:20.636Z,35.48
2022-07-27T10:44:53.665Z,35.71
2022-07-27T10:47:39.345Z,35.75
2022-07-27T10:50:12.190Z,36.08
2022-07-27T10:52:43.341Z,35.87
2022-07-27T10:55:28.336Z,35.78
2022-07-27T10:57:57.235Z,35.49
2022-07-27T11:00:42.758Z,35.86
2022-07-27T11:03:10.076Z,35.01
2022-07-27T11:05:59.584Z,35.46
2022-07-27T11:08:38.350Z,35.84
2022-07-27T11:11:15.759Z,35.86
2022-07-27T11:13:42.857Z,35.60
2022-07-27T11:16:26.140Z,35.69
2022-07-27T11:18:54.693Z,36.03
2022-07-27T11:21:26.242Z,36.08
2022-07-27T11:23:54.788Z,36.19
2022-07-27T11:26:22.416Z,35.37
2022-07-27T11:28:49.368Z,35.58
2022-07-27T11:31:27.604Z,36.19
2022-07-27T11:34:04.628Z,35.63
2022-07-27T11:36:38.847Z,35.66
2022-07-27T11:39:06.618Z,35.54
2022-07-27T11:42:05.836Z,34.81
2022-07-27T11:44:21.419Z,34.80
2022-07-27T11:46:48.899Z,35.20
2022-07-27T11:49:17.222Z,35.23
2022-07-27T11:51:45.432Z,35.39
2022-07-27T11:54:12.630Z,35.53
2022-07-27T11:56:43.302Z,35.39
2022-07-27T11:59:17.562Z,35.38
2022-07-27T12:01:46.632Z,35.75
2022-07-27T12:04:33.085Z,36.04
2022-07-27T12:07:06.009Z,35.94
2022-07-27T12:09:38.737Z,35.71
2022-07-27T12:12:15.074Z,35.55
2022-07-27T12:14:43.507Z,36.09
2022-07-27T12:17:11.220Z,36.32
2022-07-27T12:19:38.101Z,36.14
2022-07-27T12:22:05.203Z,36.04
2022-07-27T12:24:36.226Z,36.15
2022-07-27T12:27:06.571Z,36.30
2022-07-27T12:29:34.507Z,36.41
2022-07-27T12:32:02.829Z,36.37
2022-07-27T12:34:33.631Z,36.44
2022-07-27T12:37:00.671Z,36.06
2022-07-27T12:39:28.525Z,35.70
2022-07-27T12:42:05.728Z,35.57
2022-07-27T12:44:34.344Z,35.74
2022-07-27T12:47:27.784Z,35.85
2022-07-27T12:50:01.821Z,35.28
2022-07-27T12:52:28.751Z,35.77
2022-07-27T12:54:55.822Z,35.84
2022-07-27T12:57:53.564Z,35.93
2022-07-27T13:00:11.351Z,35.74
2022-07-27T13:02:38.301Z,35.56
2022-07-27T13:05:06.055Z,35.86
2022-07-27T13:07:33.233Z,36.00
2022-07-27T13:10:02.645Z,36.04
2022-07-27T13:12:30.526Z,36.02
2022-07-27T13:14:57.771Z,35.81
2022-07-27T13:17:24.730Z,35.67
2022-07-27T13:19:51.557Z,35.24
2022-07-27T13:22:18.782Z,34.93
2022-07-27T13:24:45.804Z,34.63
2022-07-27T13:27:13.514Z,34.55
2022-07-27T13:29:40.594Z,35.05
2022-07-27T13:32:07.930Z,34.43
2022-07-27T13:34:34.880Z,34.52
2022-07-27T13:37:02.440Z,34.75
2022-07-27T13:39:29.897Z,35.22
2022-07-27T13:42:01.151Z,34.19
2022-07-27T13:44:59.460Z,34.66
2022-07-27T13:47:15.022Z,34.69
2022-07-27T13:49:42.077Z,34.92
2022-07-27T13:52:09.543Z,35.16
2022-07-27T13:54:36.270Z,35.40
2022-07-27T13:57:03.402Z,35.03
2022-07-27T13:59:30.309Z,34.87
2022-07-27T14:01:57.136Z,35.14
2022-07-27T14:04:24.573Z,35.01
2022-07-27T14:06:52.540Z,35.18
2022-07-27T14:09:22.048Z,35.28
2022-07-27T14:11:52.777Z,35.30
2022-07-27T14:14:24.347Z,34.95
2022-07-27T14:16:54.122Z,35.36
2022-07-27T14:19:21.938Z,35.03
2022-07-27T14:21:48.704Z,34.68
2022-07-27T14:24:15.753Z,35.01
2022-07-27T14:26:44.779Z,34.89
2022-07-27T14:29:11.724Z,35.01
2022-07-27T14:31:39.362Z,34.98
2022-07-27T14:34:06.236Z,34.90
2022-07-27T14:36:33.909Z,35.10
2022-07-27T14:39:00.973Z,35.21
2022-07-27T14:41:28.783Z,34.64
2022-07-27T14:43:55.659Z,34.74
2022-07-27T14:46:22.766Z,34.82
2022-07-27T14:49:09.911Z,34.94
2022-07-27T14:51:36.951Z,34.85
2022-07-27T14:54:04.213Z,34.72
2022-07-27T14:56:31.018Z,34.92
2022-07-27T14:58:58.292Z,34.87
2022-07-27T15:01:25.151Z,34.87
2022-07-27T15:03:51.977Z,34.52
2022-07-27T15:06:19.059Z,34.39
2022-07-27T15:08:46.057Z,34.36
2022-07-27T15:11:12.873Z,34.48
2022-07-27T15:13:40.092Z,34.70
2022-07-27T15:16:06.948Z,34.88
2022-07-27T15:18:38.148Z,34.94
2022-07-27T15:21:13.032Z,34.90
2022-07-27T15:23:44.205Z,34.72
2022-07-27T15:26:15.088Z,34.81
2022-07-27T15:28:42.036Z,34.84
2022-07-27T15:31:08.959Z,34.36
2022-07-27T15:33:36.047Z,33.79
2022-07-27T15:36:02.787Z,33.87
2022-07-27T15:38:29.523Z,33.88
2022-07-27T15:40:56.569Z,34.06
2022-07-27T15:43:23.565Z,34.22
2022-07-27T15:45:50.850Z,34.00
2022-07-27T15:48:19.389Z,34.19
2022-07-27T15:50:50.201Z,34.25
2022-07-27T15:53:18.541Z,34.12
2022-07-27T15:55:45.352Z,33.27
2022-07-27T15:58:13.554Z,33.06
2022-07-27T16:00:41.727Z,33.82
2022-07-27T16:03:12.121Z,33.36
2022-07-27T16:05:39.473Z,33.57
2022-07-27T16:08:07.598Z,33.56
2022-07-27T16:10:34.631Z,33.71
2022-07-27T16:13:01.451Z,33.90
2022-07-27T16:15:46.926Z,33.87
2022-07-27T16:18:14.025Z,33.93
2022-07-27T16:20:40.832Z,33.53
2022-07-27T16:23:18.683Z,33.37
2022-07-27T16:26:07.583Z,33.66
2022-07-27T16:28:39.107Z,33.46
2022-07-27T16:31:07.221Z,33.22
2022-07-27T16:33:34.055Z,33.02
2022-07-27T16:36:00.847Z,33.26
2022-07-27T16:38:28.194Z,33.16
2022-07-27T16:40:54.998Z,33.03
2022-07-27T16:43:21.732Z,33.24
2022-07-27T16:45:48.767Z,33.12
2022-07-27T16:48:16.724Z,33.14
2022-07-27T16:50:43.452Z,32.92
2022-07-27T16:53:10.704Z,32.70
2022-07-27T16:55:37.456Z,32.97
2022-07-27T16:58:05.218Z,33.12
2022-07-27T17:00:38.150Z,32.87
2022-07-27T17:03:06.370Z,32.80
2022-07-27T17:05:33.441Z,32.63
2022-07-27T17:08:00.167Z,32.88
2022-07-27T17:10:27.628Z,32.52
2022-07-27T17:12:55.826Z,32.50
2022-07-27T17:15:24.644Z,32.61
2022-07-27T17:17:51.393Z,32.42
2022-07-27T17:20:32.993Z,31.89
2022-07-27T17:23:03.490Z,32.02
2022-07-27T17:25:30.587Z,31.77
2022-07-27T17:27:57.579Z,31.79
2022-07-27T17:30:24.910Z,31.48
2022-07-27T17:32:53.354Z,31.32
2022-07-27T17:35:20.179Z,31.41
2022-07-27T17:38:05.059Z,31.09
2022-07-27T17:40:32.931Z,31.37
2022-07-27T17:42:59.631Z,31.18
2022-07-27T17:45:26.589Z,30.56
2022-07-27T17:47:53.779Z,30.97
2022-07-27T17:50:20.620Z,31.14
2022-07-27T17:52:47.340Z,31.10
2022-07-27T17:55:14.337Z,30.79
2022-07-27T17:57:41.175Z,30.81
2022-07-27T18:00:10.788Z,30.68
2022-07-27T18:02:37.785Z,30.73
2022-07-27T18:05:04.684Z,30.64
2022-07-27T18:07:39.057Z,30.55
2022-07-27T18:10:07.799Z,30.78
2022-07-27T18:12:35.564Z,30.62
2022-07-27T18:15:21.562Z,30.44
2022-07-27T18:17:48.722Z,30.53
2022-07-27T18:20:15.942Z,30.65
2022-07-27T18:22:42.693Z,30.64
2022-07-27T18:25:10.026Z,30.58
2022-07-27T18:27:38.497Z,30.50
2022-07-27T18:30:05.660Z,30.59
2022-07-27T18:32:33.420Z,30.58
2022-07-27T18:35:01.529Z,30.35
2022-07-27T18:37:28.428Z,30.46
2022-07-27T18:39:55.574Z,30.48
2022-07-27T18:42:22.434Z,30.27
2022-07-27T18:44:49.755Z,30.29
2022-07-27T18:47:16.803Z,30.27
2022-07-27T18:49:43.814Z,30.33
2022-07-27T18:52:11.571Z,30.11
2022-07-27T18:54:39.799Z,30.14
2022-07-27T18:57:06.534Z,29.71
2022-07-27T18:59:35.576Z,29.81
2022-07-27T19:02:08.616Z,30.10
2022-07-27T19:04:35.580Z,29.73
2022-07-27T19:07:03.503Z,29.78
2022-07-27T19:09:33.692Z,29.75
2022-07-27T19:12:03.484Z,29.70
2022-07-27T19:14:33.125Z,29.72
2022-07-27T19:17:00.181Z,29.51
2022-07-27T19:19:27.401Z,29.49
2022-07-27T19:21:54.815Z,29.59
2022-07-27T19:24:23.207Z,29.30
2022-07-27T19:26:50.301Z,29.51
2022-07-27T19:29:19.774Z,29.38
2022-07-27T19:31:47.680Z,29.46
2022-07-27T19:34:14.579Z,29.08
2022-07-27T19:36:41.675Z,29.29
2022-07-27T19:39:08.735Z,29.19
2022-07-27T19:41:35.759Z,28.97
2022-07-27T19:44:03.781Z,28.82
2022-07-27T19:46:30.733Z,28.97
2022-07-27T19:48:57.861Z,28.73
2022-07-27T19:51:25.458Z,28.84
2022-07-27T19:53:53.338Z,28.72
2022-07-27T19:56:20.403Z,28.54
2022-07-27T19:58:47.831Z,28.80
2022-07-27T20:01:14.846Z,28.83
2022-07-27T20:03:52.172Z,28.87
2022-07-27T20:06:21.431Z,28.64
2022-07-27T20:08:48.739Z,28.93
2022-07-27T20:11:15.720Z,28.87
2022-07-27T20:13:42.488Z,28.63
2022-07-27T20:16:09.667Z,28.57
2022-07-27T20:18:37.784Z,28.47
2022-07-27T20:21:04.846Z,28.59
2022-07-27T20:23:50.434Z,28.32
2022-07-27T20:26:17.227Z,28.04
2022-07-27T20:28:44.042Z,28.25
2022-07-27T20:31:12.185Z,28.33
2022-07-27T20:33:40.166Z,28.24
2022-07-27T20:36:07.051Z,28.15
2022-07-27T20:38:34.094Z,28.34
2022-07-27T20:41:01.237Z,28.33
2022-07-27T20:43:28.088Z,28.21
2022-07-27T20:45:55.285Z,28.06
2022-07-27T20:48:22.162Z,28.27
2022-07-27T20:50:48.983Z,28.09
2022-07-27T20:53:20.219Z,28.13
2022-07-27T20:55:47.365Z,28.12
2022-07-27T20:58:14.176Z,28.32
2022-07-27T21:00:41.253Z,28.15
2022-07-27T21:03:08.607Z,28.22
2022-07-27T21:05:35.347Z,28.14
2022-07-27T21:08:02.408Z,28.19
2022-07-27T21:10:29.127Z,28.04
2022-07-27T21:12:57.820Z,28.00
2022-07-27T21:15:33.631Z,28.08
2022-07-27T21:18:01.822Z,27.84
2022-07-27T21:20:29.116Z,27.93
2022-07-27T21:23:14.800Z,27.76
2022-07-27T21:25:43.965Z,27.65
2022-07-27T21:28:11.678Z,27.45
2022-07-27T21:30:44.073Z,27.51
2022-07-27T21:33:10.943Z,27.39
2022-07-27T21:35:37.787Z,27.44
2022-07-27T21:38:04.787Z,27.27
2022-07-27T21:40:32.018Z,27.09
2022-07-27T21:42:58.756Z,27.16
2022-07-27T21:45:25.897Z,27.31
2022-07-27T21:47:52.848Z,27.21
2022-07-27T21:50:19.682Z,27.25
2022-07-27T21:52:46.715Z,27.08
2022-07-27T21:55:13.464Z,26.91
2022-07-27T21:57:45.223Z,27.04
2022-07-27T22:00:13.582Z,27.17
2022-07-27T22:02:40.684Z,27.26
2022-07-27T22:05:07.650Z,27.09
2022-07-27T22:07:34.378Z,27.18
2022-07-27T22:10:01.459Z,27.39
2022-07-27T22:12:28.147Z,27.32
2022-07-27T22:14:54.905Z,27.10
2022-07-27T22:17:21.956Z,27.36
2022-07-27T22:19:48.703Z,27.36
2022-07-27T22:22:15.517Z,27.36
2022-07-27T22:24:42.696Z,27.50
2022-07-27T22:27:10.582Z,27.34
2022-07-27T22:29:38.283Z,27.57
2022-07-27T22:32:09.130Z,27.53
2022-07-27T22:34:35.926Z,27.54
2022-07-27T22:37:03.710Z,27.43
2022-07-27T22:39:31.775Z,27.63
2022-07-27T22:41:58.497Z,27.63
2022-07-27T22:44:25.564Z,27.58
2022-07-27T22:46:52.600Z,27.50
2022-07-27T22:49:19.729Z,27.37
2022-07-27T22:51:49.609Z,27.42
2022-07-27T22:54:18.051Z,27.24
2022-07-27T22:56:44.916Z,27.21
2022-07-27T22:59:11.808Z,27.35
2022-07-27T23:01:45.397Z,27.19
2022-07-27T23:04:14.539Z,26.73
2022-07-27T23:06:42.655Z,27.16
2022-07-27T23:09:09.437Z,26.86
2022-07-27T23:11:36.199Z,26.74
2022-07-27T23:14:03.243Z,26.62
2022-07-27T23:16:30.164Z,26.80
2022-07-27T23:18:56.922Z,26.98
2022-07-27T23:21:23.988Z,27.04
2022-07-27T23:23:53.513Z,27.36
2022-07-27T23:26:20.836Z,27.33
2022-07-27T23:28:53.698Z,27.30
2022-07-27T23:31:20.788Z,27.44
2022-07-27T23:33:47.632Z,27.33
2022-07-27T23:36:14.913Z,27.42
2022-07-27T23:38:41.681Z,27.57
2022-07-27T23:41:08.513Z,27.42
2022-07-27T23:43:35.745Z,27.39
2022-07-27T23:46:03.120Z,27.63
2022-07-27T23:48:30.323Z,27.45
2022-07-27T23:50:57.327Z,27.54
2022-07-27T23:53:24.114Z,27.22
2022-07-27T23:55:50.886Z,27.45
2022-07-27T23:58:17.917Z,27.31
